| time (UTC) | temp C | wind direction | speed KPH | gust KPH | rain 1hr cm | rain 24hr cm | rain mn cm | humidity % | barometer mb |
| 20260901064521 | 27 | 124 | 4.8 | 16.1 | 0.00 | 0.00 | 0.00 | 79 | 1017.3 |
| 20260901063052 | 27 | 132 | 4.8 | 14.5 | 0.00 | 0.00 | 0.00 | 78 | 1015.6 |
| 20260901063027 | 27 | 202 | 4.8 | 14.5 | 0.00 | 0.00 | 0.00 | 78 | 1017.3 |
| 20260901061604 | 27 | 92 | 8.0 | 17.7 | 0.00 | 0.00 | 0.00 | 76 | 1015.7 |
| 20260901061514 | 27 | 139 | 6.4 | 17.7 | 0.00 | 0.00 | 0.00 | 77 | 1017.4 |
| 20260901060100 | 27 | 133 | 6.4 | 19.3 | 0.00 | 0.00 | 0.00 | 75 | 1015.4 |
| 20260901060011 | 27 | 107 | 6.4 | 19.3 | 0.00 | 0.00 | 0.00 | 76 | 1017.0 |
| 20260901054553 | 28 | 134 | 4.8 | 17.7 | 0.00 | 0.00 | 0.00 | 74 | 1015.4 |
| 20260901054520 | 28 | 140 | 3.2 | 16.1 | 0.00 | 0.00 | 0.00 | 74 | 1016.8 |
| 20260901053057 | 28 | 165 | 8.0 | 20.9 | 0.00 | 0.00 | 0.00 | 72 | 1015.2 |
| 20260901053009 | 28 | 194 | 6.4 | 20.9 | 0.00 | 0.00 | 0.00 | 73 | 1016.7 |
| 20260901051604 | 28 | 153 | 11.3 | 22.5 | 0.00 | 0.00 | 0.00 | 70 | 1015.3 |
| 20260901051504 | 28 | 171 | 9.7 | 22.5 | 0.00 | 0.00 | 0.00 | 71 | 1016.8 |
| 20260901050058 | 28 | 156 | 6.4 | 20.9 | 0.00 | 0.00 | 0.00 | 69 | 1015.2 |
| 20260901050002 | 28 | 146 | 4.8 | 20.9 | 0.00 | 0.00 | 0.00 | 69 | 1016.6 |
| 20260901044600 | 29 | 138 | 9.7 | 17.7 | 0.00 | 0.00 | 0.00 | 69 | 1016.6 |
| 20260901044552 | 29 | 134 | 9.7 | 20.9 | 0.00 | 0.00 | 0.00 | 68 | 1015.0 |
| 20260901044501 | 29 | 154 | 9.7 | 19.3 | 0.00 | 0.00 | 0.00 | 69 | 1016.6 |
| 20260901043102 | 29 | 132 | 9.7 | 30.6 | 0.00 | 0.00 | 0.00 | 67 | 1016.4 |
| 20260901043058 | 29 | 126 | 12.9 | 30.6 | 0.00 | 0.00 | 0.00 | 67 | 1014.9 |
| 20260901043001 | 29 | 173 | 12.9 | 30.6 | 0.00 | 0.00 | 0.00 | 67 | 1016.5 |
| 20260901041659 | 30 | 129 | 4.8 | 19.3 | 0.00 | 0.00 | 0.00 | 65 | 1016.3 |
| 20260901041551 | 30 | 149 | 9.7 | 19.3 | 0.00 | 0.00 | 0.00 | 65 | 1014.8 |
| 20260901040114 | 30 | 137 | 8.0 | 22.5 | 0.00 | 0.00 | 0.00 | 63 | 1014.6 |
| 20260901040112 | 30 | 135 | 9.7 | 19.3 | 0.00 | 0.00 | 0.00 | 64 | 1016.2 |
| 20260901034558 | 30 | 141 | 9.7 | 24.1 | 0.00 | 0.00 | 0.00 | 63 | 1016.1 |
| 20260901034554 | 30 | 167 | 12.9 | 24.1 | 0.00 | 0.00 | 0.00 | 63 | 1014.5 |
| 20260901033057 | 30 | 155 | 8.0 | 25.7 | 0.00 | 0.00 | 0.00 | 63 | 1016.1 |
| 20260901031557 | 31 | 133 | 14.5 | 29.0 | 0.00 | 0.00 | 0.00 | 62 | 1015.8 |
| 20260901031548 | 31 | 134 | 14.5 | 29.0 | 0.00 | 0.00 | 0.00 | 62 | 1014.2 |
| 20260901030056 | 31 | 94 | 8.0 | 24.1 | 0.00 | 0.00 | 0.00 | 61 | 1015.9 |
| 20260901030054 | 31 | 142 | 9.7 | 25.7 | 0.00 | 0.00 | 0.00 | 61 | 1014.1 |
| 20260901024556 | 32 | 164 | 12.9 | 27.4 | 0.00 | 0.00 | 0.00 | 59 | 1013.8 |
| 20260901023054 | 32 | 186 | 9.7 | 37.0 | 0.00 | 0.00 | 0.00 | 57 | 1013.5 |
| 20260901021556 | 32 | 155 | 14.5 | 32.2 | 0.00 | 0.00 | 0.00 | 55 | 1013.2 |
| 20260901020057 | 32 | 102 | 6.4 | 12.9 | 0.00 | 0.00 | 0.00 | 54 | 1013.0 |
| 20260901020054 | 32 | 90 | 4.8 | 12.9 | 0.00 | 0.00 | 0.00 | 55 | 1014.6 |
| 20260901014553 | 33 | 131 | 6.4 | 12.9 | 0.00 | 0.00 | 0.00 | 52 | 1014.5 |
| 20260901013113 | 33 | 136 | 3.2 | 11.3 | 0.00 | 0.00 | 0.00 | 51 | 1012.8 |
| 20260901013108 | 33 | 130 | 3.2 | 11.3 | 0.00 | 0.00 | 0.00 | 51 | 1014.3 |
| 20260901011558 | 33 | 96 | 4.8 | 14.5 | 0.00 | 0.00 | 0.00 | 50 | 1012.5 |
| 20260901011551 | 33 | 87 | 6.4 | 12.9 | 0.00 | 0.00 | 0.00 | 50 | 1014.2 |
| 20260901010052 | 33 | 101 | 6.4 | 12.9 | 0.00 | 0.00 | 0.00 | 50 | 1014.0 |
| 20260901010049 | 33 | 110 | 6.4 | 12.9 | 0.00 | 0.00 | 0.00 | 49 | 1012.5 |
| 20260901004601 | 33 | 98 | 3.2 | 14.5 | 0.00 | 0.00 | 0.00 | 48 | 1012.5 |
| 20260901004549 | 34 | 98 | 3.2 | 12.9 | 0.00 | 0.00 | 0.00 | 49 | 1013.9 |
| 20260901003052 | 34 | 92 | 3.2 | 9.7 | 0.00 | 0.00 | 0.00 | 48 | 1012.5 |
| 20260901003049 | 34 | 111 | 1.6 | 9.7 | 0.00 | 0.00 | 0.00 | 49 | 1013.9 |
| 20260901001549 | 35 | 112 | 4.8 | 16.1 | 0.00 | 0.00 | 0.00 | 48 | 1013.7 |
| 20260901000057 | 35 | 123 | 1.6 | 12.9 | 0.00 | 0.00 | 0.00 | 48 | 1012.2 |
| 20260901000048 | 35 | 85 | 4.8 | 12.9 | 0.00 | 0.00 | 0.00 | 48 | 1013.7 |
| 20260831234557 | 35 | 68 | 8.0 | 20.9 | 0.00 | 0.00 | 0.00 | 47 | 1012.2 |
| 20260831234554 | 35 | 61 | 9.7 | 20.9 | 0.00 | 0.00 | 0.00 | 47 | 1013.6 |
| 20260831233104 | 35 | 129 | 3.2 | 12.9 | 0.00 | 0.00 | 0.00 | 45 | 1012.0 |
| 20260831233047 | 35 | 120 | 4.8 | 12.9 | 0.00 | 0.00 | 0.00 | 45 | 1013.7 |
| 20260831231551 | 35 | 80 | 4.8 | 17.7 | 0.00 | 0.00 | 0.00 | 43 | 1012.1 |
| 20260831231547 | 35 | 60 | 4.8 | 14.5 | 0.00 | 0.00 | 0.00 | 44 | 1013.6 |
| 20260831230057 | 36 | 140 | 9.7 | 19.3 | 0.00 | 0.00 | 0.00 | 44 | 1012.3 |
| 20260831230044 | 36 | 119 | 11.3 | 19.3 | 0.00 | 0.00 | 0.00 | 44 | 1013.6 |
| 20260831224554 | 36 | 198 | 4.8 | 14.5 | 0.00 | 0.00 | 0.00 | 42 | 1012.3 |
| 20260831224543 | 36 | 203 | 4.8 | 11.3 | 0.00 | 0.00 | 0.00 | 42 | 1013.7 |
| 20260831223100 | 36 | 96 | 3.2 | 19.3 | 0.00 | 0.00 | 0.00 | 42 | 1012.4 |
| 20260831223044 | 36 | 144 | 3.2 | 19.3 | 0.00 | 0.00 | 0.00 | 43 | 1013.9 |
| 20260831221621 | 36 | 132 | 8.0 | 16.1 | 0.00 | 0.00 | 0.00 | 43 | 1012.5 |
| 20260831221540 | 36 | 134 | 8.0 | 16.1 | 0.00 | 0.00 | 0.00 | 43 | 1013.9 |
| 20260831220056 | 36 | 126 | 6.4 | 19.3 | 0.00 | 0.00 | 0.00 | 42 | 1012.7 |
| 20260831220039 | 36 | 123 | 8.0 | 17.7 | 0.00 | 0.00 | 0.00 | 43 | 1014.1 |
| 20260831214549 | 36 | 165 | 6.4 | 17.7 | 0.00 | 0.00 | 0.00 | 45 | 1013.0 |
| 20260831214536 | 36 | 165 | 6.4 | 17.7 | 0.00 | 0.00 | 0.00 | 45 | 1014.5 |
| 20260831213054 | 36 | 59 | 8.0 | 19.3 | 0.00 | 0.00 | 0.00 | 45 | 1013.0 |
| 20260831213033 | 36 | 92 | 9.7 | 19.3 | 0.00 | 0.00 | 0.00 | 45 | 1014.7 |
| 20260831211558 | 36 | 132 | 3.2 | 16.1 | 0.00 | 0.00 | 0.00 | 47 | 1013.2 |
| 20260831211530 | 36 | 132 | 3.2 | 16.1 | 0.00 | 0.00 | 0.00 | 48 | 1014.8 |
| 20260831210052 | 35 | 112 | 8.0 | 19.3 | 0.00 | 0.00 | 0.00 | 48 | 1013.4 |
| 20260831210029 | 35 | 133 | 9.7 | 19.3 | 0.00 | 0.00 | 0.00 | 49 | 1015.1 |
| 20260831204604 | 35 | 116 | 3.2 | 20.9 | 0.00 | 0.00 | 0.00 | 49 | 1013.6 |
| 20260831204533 | 35 | 113 | 8.0 | 16.1 | 0.00 | 0.00 | 0.00 | 50 | 1015.3 |
| 20260831203121 | 35 | 105 | 11.3 | 20.9 | 0.00 | 0.00 | 0.00 | 49 | 1014.0 |
| 20260831203027 | 35 | 105 | 11.3 | 20.9 | 0.00 | 0.00 | 0.00 | 49 | 1015.8 |
| 20260831201604 | 35 | 122 | 6.4 | 22.5 | 0.00 | 0.00 | 0.00 | 49 | 1014.1 |
| 20260831201522 | 35 | 130 | 8.0 | 22.5 | 0.00 | 0.00 | 0.00 | 49 | 1015.9 |
| 20260831200139 | 35 | 117 | 9.7 | 24.1 | 0.00 | 0.00 | 0.00 | 50 | 1014.4 |
| 20260831200035 | 35 | 113 | 8.0 | 20.9 | 0.00 | 0.00 | 0.00 | 50 | 1016.1 |
| 20260831194610 | 35 | 90 | 6.4 | 17.7 | 0.00 | 0.00 | 0.00 | 52 | 1014.7 |
| 20260831194525 | 35 | 69 | 6.4 | 17.7 | 0.00 | 0.00 | 0.00 | 51 | 1016.4 |
| 20260831193056 | 35 | 148 | 3.2 | 16.1 | 0.00 | 0.00 | 0.00 | 52 | 1014.8 |
| 20260831193015 | 35 | 259 | 3.2 | 14.5 | 0.00 | 0.00 | 0.00 | 52 | 1016.4 |
| 20260831191607 | 35 | 201 | 9.7 | 29.0 | 0.00 | 0.00 | 0.00 | 52 | 1015.4 |
| 20260831191511 | 35 | 175 | 8.0 | 29.0 | 0.00 | 0.00 | 0.00 | 52 | 1016.7 |
| 20260831190100 | 34 | 82 | 6.4 | 17.7 | 0.00 | 0.00 | 0.00 | 54 | 1015.5 |
| 20260831190019 | 34 | 90 | 6.4 | 17.7 | 0.00 | 0.00 | 0.00 | 54 | 1016.9 |
| 20260831184554 | 34 | 115 | 9.7 | 19.3 | 0.00 | 0.00 | 0.00 | 53 | 1015.6 |
| 20260831184507 | 34 | 124 | 11.3 | 19.3 | 0.00 | 0.00 | 0.00 | 54 | 1017.1 |
| 20260831183054 | 34 | 100 | 6.4 | 20.9 | 0.00 | 0.00 | 0.00 | 54 | 1015.9 |
| 20260831183003 | 34 | 126 | 6.4 | 20.9 | 0.00 | 0.00 | 0.00 | 56 | 1017.3 |
| 20260831181559 | 34 | 90 | 8.0 | 16.1 | 0.00 | 0.00 | 0.00 | 54 | 1015.9 |
| 20260831181502 | 34 | 109 | 8.0 | 16.1 | 0.00 | 0.00 | 0.00 | 55 | 1017.4 |
| 20260831180058 | 34 | 121 | 6.4 | 16.1 | 0.00 | 0.00 | 0.00 | 56 | 1016.1 |
| 20260831180006 | 34 | 172 | 8.0 | 16.1 | 0.00 | 0.00 | 0.00 | 56 | 1017.5 |
| 20260831174559 | 33 | 153 | 9.7 | 19.3 | 0.00 | 0.00 | 0.00 | 58 | 1017.8 |
| 20260831174553 | 33 | 132 | 9.7 | 19.3 | 0.00 | 0.00 | 0.00 | 57 | 1016.3 |
| 20260831173156 | 33 | 96 | 6.4 | 20.9 | 0.00 | 0.00 | 0.00 | 61 | 1018.1 |
| 20260831173106 | 33 | 86 | 9.7 | 20.9 | 0.00 | 0.00 | 0.00 | 61 | 1016.3 |
| 20260831171555 | 33 | 120 | 8.0 | 17.7 | 0.00 | 0.00 | 0.00 | 62 | 1016.2 |
| 20260831170055 | 33 | 217 | 4.8 | 14.5 | 0.00 | 0.00 | 0.00 | 63 | 1016.5 |
| 20260831170053 | 32 | 65 | 4.8 | 14.5 | 0.00 | 0.00 | 0.00 | 63 | 1018.3 |
| 20260831164556 | 32 | 136 | 1.6 | 16.1 | 0.00 | 0.00 | 0.00 | 67 | 1016.5 |
| 20260831164549 | 32 | 158 | 4.8 | 17.7 | 0.00 | 0.00 | 0.00 | 68 | 1018.1 |
| 20260831163057 | 32 | 170 | 6.4 | 17.7 | 0.00 | 0.00 | 0.00 | 67 | 1016.5 |
| 20260831163047 | 32 | 179 | 4.8 | 16.1 | 0.00 | 0.00 | 0.00 | 67 | 1018.2 |
| 20260831161553 | 31 | 192 | 4.8 | 20.9 | 0.00 | 0.00 | 0.00 | 69 | 1016.5 |
| 20260831161543 | 31 | 191 | 6.4 | 17.7 | 0.00 | 0.00 | 0.00 | 69 | 1018.3 |
| 20260831160041 | 31 | 183 | 3.2 | 17.7 | 0.00 | 0.00 | 0.00 | 70 | 1018.3 |
| 20260831154624 | 30 | 150 | 8.0 | 22.5 | 0.00 | 0.00 | 0.00 | 72 | 1016.7 |
| 20260831154537 | 30 | 150 | 6.4 | 22.5 | 0.00 | 0.00 | 0.00 | 73 | 1018.3 |
| 20260831153054 | 30 | 169 | 8.0 | 16.1 | 0.00 | 0.00 | 0.00 | 74 | 1016.4 |
| 20260831153034 | 30 | 169 | 9.7 | 14.5 | 0.00 | 0.00 | 0.00 | 75 | 1018.2 |
| 20260831151604 | 29 | 169 | 6.4 | 19.3 | 0.00 | 0.00 | 0.00 | 75 | 1016.3 |
| 20260831151532 | 29 | 169 | 8.0 | 19.3 | 0.00 | 0.00 | 0.00 | 76 | 1018.1 |
| 20260831150058 | 29 | 175 | 4.8 | 16.1 | 0.00 | 0.00 | 0.00 | 77 | 1016.4 |
| 20260831150031 | 29 | 175 | 4.8 | 16.1 | 0.00 | 0.00 | 0.00 | 78 | 1018.2 |
| 20260831144555 | 28 | 177 | 6.4 | 16.1 | 0.00 | 0.00 | 0.00 | 78 | 1016.4 |
| 20260831144529 | 28 | 177 | 6.4 | 16.1 | 0.00 | 0.00 | 0.00 | 79 | 1018.1 |
| 20260831143053 | 28 | 132 | 8.0 | 17.7 | 0.00 | 0.00 | 0.00 | 81 | 1016.4 |
| 20260831143025 | 28 | 124 | 8.0 | 16.1 | 0.00 | 0.00 | 0.00 | 82 | 1018.1 |
| 20260831141616 | 28 | 146 | 4.8 | 14.5 | 0.00 | 0.00 | 0.00 | 82 | 1016.3 |
| 20260831141524 | 28 | 148 | 4.8 | 14.5 | 0.00 | 0.00 | 0.00 | 83 | 1018.0 |
| 20260831140059 | 28 | 161 | 4.8 | 11.3 | 0.00 | 0.00 | 0.00 | 83 | 1016.2 |
| 20260831140033 | 28 | 144 | 4.8 | 11.3 | 0.00 | 0.00 | 0.00 | 84 | 1017.6 |
| 20260831134557 | 27 | 123 | 3.2 | 12.9 | 0.00 | 0.00 | 0.00 | 86 | 1016.2 |
| 20260831134521 | 27 | 150 | 3.2 | 8.0 | 0.00 | 0.00 | 0.00 | 87 | 1017.7 |
| 20260831133055 | 26 | 119 | 4.8 | 14.5 | 0.00 | 0.00 | 0.00 | 89 | 1015.9 |
| 20260831133019 | 26 | 139 | 6.4 | 17.7 | 0.00 | 0.00 | 0.00 | 90 | 1017.5 |
| 20260831131607 | 26 | 148 | 1.6 | 8.0 | 0.00 | 0.00 | 0.00 | 92 | 1015.8 |
| 20260831131517 | 26 | 152 | 3.2 | 8.0 | 0.00 | 0.00 | 0.00 | 93 | 1017.4 |
| 20260831130059 | 25 | 163 | 3.2 | 8.0 | 0.00 | 0.00 | 0.00 | 93 | 1015.8 |
| 20260831130017 | 25 | 147 | 3.2 | 6.4 | 0.00 | 0.00 | 0.00 | 93 | 1017.3 |
| 20260831124557 | 25 | 126 | 0.0 | 4.8 | 0.00 | 0.00 | 0.00 | 92 | 1015.7 |
| 20260831124517 | 25 | 126 | 0.0 | 4.8 | 0.00 | 0.00 | 0.00 | 93 | 1017.3 |
| 20260831123105 | 25 | 133 | 0.0 | 4.8 | 0.00 | 0.00 | 0.00 | 92 | 1015.5 |
| 20260831123015 | 25 | 133 | 1.6 | 4.8 | 0.00 | 0.00 | 0.00 | 92 | 1017.1 |
| 20260831121559 | 25 | 132 | 1.6 | 11.3 | 0.00 | 0.00 | 0.00 | 91 | 1015.5 |
| 20260831121515 | 25 | 132 | 0.0 | 11.3 | 0.00 | 0.00 | 0.00 | 92 | 1017.0 |
| 20260831120139 | 25 | 169 | 3.2 | 9.7 | 0.00 | 0.00 | 0.00 | 91 | 1015.5 |
| 20260831120121 | 25 | 174 | 1.6 | 9.7 | 0.00 | 0.00 | 0.00 | 92 | 1017.0 |
| 20260831114554 | 25 | 179 | 3.2 | 12.9 | 0.00 | 0.00 | 0.00 | 91 | 1015.5 |
| 20260831114552 | 25 | 138 | 4.8 | 12.9 | 0.00 | 0.00 | 0.00 | 91 | 1016.9 |
| 20260831113105 | 25 | 140 | 3.2 | 9.7 | 0.00 | 0.00 | 0.00 | 91 | 1015.4 |
| 20260831113053 | 25 | 161 | 4.8 | 8.0 | 0.00 | 0.00 | 0.00 | 91 | 1016.9 |
| 20260831111559 | 25 | 173 | 0.0 | 4.8 | 0.00 | 0.00 | 0.00 | 90 | 1015.4 |
| 20260831111556 | 25 | 165 | 0.0 | 4.8 | 0.00 | 0.00 | 0.00 | 91 | 1016.9 |
| 20260831110058 | 25 | 157 | 3.2 | 11.3 | 0.00 | 0.00 | 0.00 | 90 | 1015.5 |
| 20260831110050 | 25 | 157 | 3.2 | 11.3 | 0.00 | 0.00 | 0.00 | 91 | 1016.9 |
| 20260831104602 | 25 | 0 | 3.2 | 12.9 | 0.00 | 0.00 | 0.00 | 90 | 1015.4 |
| 20260831103057 | 26 | 159 | 1.6 | 17.7 | 0.00 | 0.00 | 0.00 | 90 | 1015.4 |
| 20260831103047 | 26 | 155 | 3.2 | 16.1 | 0.00 | 0.00 | 0.00 | 90 | 1016.8 |
| 20260831101603 | 26 | 178 | 4.8 | 16.1 | 0.00 | 0.00 | 0.00 | 89 | 1015.4 |
| 20260831101547 | 26 | 164 | 3.2 | 16.1 | 0.00 | 0.00 | 0.00 | 90 | 1016.9 |
| 20260831100106 | 26 | 134 | 6.4 | 14.5 | 0.00 | 0.00 | 0.00 | 89 | 1015.5 |
| 20260831100047 | 26 | 176 | 6.4 | 14.5 | 0.00 | 0.00 | 0.00 | 90 | 1017.0 |
| 20260831094554 | 26 | 155 | 4.8 | 22.5 | 0.00 | 0.00 | 0.00 | 89 | 1015.4 |
| 20260831094544 | 26 | 172 | 3.2 | 22.5 | 0.00 | 0.00 | 0.00 | 89 | 1016.9 |
| 20260831093055 | 26 | 161 | 9.7 | 22.5 | 0.00 | 0.00 | 0.00 | 89 | 1015.5 |
| 20260831093051 | 26 | 159 | 9.7 | 22.5 | 0.00 | 0.00 | 0.00 | 89 | 1016.8 |
| 20260831091557 | 26 | 128 | 3.2 | 19.3 | 0.00 | 0.00 | 0.00 | 88 | 1015.5 |
| 20260831091543 | 26 | 174 | 3.2 | 19.3 | 0.00 | 0.00 | 0.00 | 89 | 1017.0 |
| 20260831090103 | 26 | 161 | 4.8 | 19.3 | 0.00 | 0.00 | 0.00 | 88 | 1015.5 |
| 20260831090054 | 26 | 161 | 4.8 | 19.3 | 0.00 | 0.00 | 0.00 | 89 | 1017.0 |
| 20260831084603 | 26 | 132 | 6.4 | 14.5 | 0.00 | 0.00 | 0.00 | 88 | 1015.5 |
| 20260831084552 | 26 | 139 | 4.8 | 14.5 | 0.00 | 0.00 | 0.00 | 88 | 1017.1 |
| 20260831083057 | 26 | 164 | 1.6 | 12.9 | 0.00 | 0.00 | 0.00 | 87 | 1015.6 |
| 20260831083040 | 26 | 121 | 3.2 | 12.9 | 0.00 | 0.00 | 0.00 | 88 | 1017.1 |
| 20260831081556 | 26 | 138 | 4.8 | 11.3 | 0.00 | 0.00 | 0.00 | 87 | 1015.7 |
| 20260831081541 | 26 | 138 | 4.8 | 11.3 | 0.00 | 0.00 | 0.00 | 88 | 1017.1 |
| 20260831080055 | 26 | 132 | 3.2 | 14.5 | 0.00 | 0.00 | 0.00 | 87 | 1015.7 |
| 20260831080041 | 26 | 175 | 3.2 | 14.5 | 0.00 | 0.00 | 0.00 | 87 | 1017.1 |
| 20260831074549 | 26 | 140 | 6.4 | 16.1 | 0.00 | 0.00 | 0.00 | 87 | 1015.6 |
| 20260831074537 | 26 | 140 | 6.4 | 16.1 | 0.00 | 0.00 | 0.00 | 87 | 1017.1 |
| 20260831073102 | 26 | 169 | 4.8 | 12.9 | 0.00 | 0.00 | 0.00 | 86 | 1015.6 |
| 20260831073035 | 26 | 169 | 4.8 | 12.9 | 0.00 | 0.00 | 0.00 | 86 | 1017.2 |
| 20260831071555 | 26 | 153 | 6.4 | 16.1 | 0.00 | 0.00 | 0.00 | 85 | 1015.8 |
| 20260831071534 | 26 | 160 | 3.2 | 16.1 | 0.00 | 0.00 | 0.00 | 86 | 1017.4 |
| 20260831070104 | 26 | 132 | 4.8 | 14.5 | 0.00 | 0.00 | 0.00 | 84 | 1015.7 |
| 20260831070043 | 26 | 132 | 6.4 | 14.5 | 0.00 | 0.00 | 0.00 | 85 | 1017.3 |
| 20260831064557 | 26 | 121 | 4.8 | 14.5 | 0.00 | 0.00 | 0.00 | 83 | 1015.7 |
| 20260831064530 | 26 | 121 | 6.4 | 14.5 | 0.00 | 0.00 | 0.00 | 83 | 1017.2 |